sensor_id;sensor_type;location;lat;lon;timestamp;pressure;altitude;pressure_sealevel;temperature;humidity
39363;BME280;25088;43.238;23.110;2023-01-29T00:01:12;96643.91;;;2.42;100.00
39363;BME280;25088;43.238;23.110;2023-01-29T00:03:39;96650.34;;;2.41;100.00
39363;BME280;25088;43.238;23.110;2023-01-29T00:06:06;96654.69;;;2.42;100.00
39363;BME280;25088;43.238;23.110;2023-01-29T00:08:36;96654.69;;;2.42;100.00
39363;BME280;25088;43.238;23.110;2023-01-29T00:11:04;96656.34;;;2.43;100.00
39363;BME280;25088;43.238;23.110;2023-01-29T00:13:29;96651.38;;;2.40;100.00
39363;BME280;25088;43.238;23.110;2023-01-29T00:15:56;96658.88;;;2.51;100.00
39363;BME280;25088;43.238;23.110;2023-01-29T00:18:23;96651.38;;;2.47;100.00
39363;BME280;25088;43.238;23.110;2023-01-29T00:20:48;96663.44;;;2.51;100.00
39363;BME280;25088;43.238;23.110;2023-01-29T00:23:14;96660.34;;;2.54;100.00
39363;BME280;25088;43.238;23.110;2023-01-29T00:25:40;96669.88;;;2.56;100.00
39363;BME280;25088;43.238;23.110;2023-01-29T00:28:06;96668.66;;;2.59;100.00
39363;BME280;25088;43.238;23.110;2023-01-29T00:30:31;96664.88;;;2.53;100.00
39363;BME280;25088;43.238;23.110;2023-01-29T00:32:57;96669.03;;;2.49;100.00
39363;BME280;25088;43.238;23.110;2023-01-29T00:35:22;96672.56;;;2.50;100.00
39363;BME280;25088;43.238;23.110;2023-01-29T00:37:48;96670.47;;;2.52;100.00
39363;BME280;25088;43.238;23.110;2023-01-29T00:40:13;96671.13;;;2.54;100.00
39363;BME280;25088;43.238;23.110;2023-01-29T00:42:39;96670.69;;;2.57;100.00
39363;BME280;25088;43.238;23.110;2023-01-29T00:45:23;96672.97;;;2.53;100.00
39363;BME280;25088;43.238;23.110;2023-01-29T00:47:48;96670.47;;;2.52;100.00
39363;BME280;25088;43.238;23.110;2023-01-29T00:50:14;96679.16;;;2.47;100.00
39363;BME280;25088;43.238;23.110;2023-01-29T00:52:40;96682.28;;;2.51;100.00
39363;BME280;25088;43.238;23.110;2023-01-29T00:55:06;96683.13;;;2.51;100.00
39363;BME280;25088;43.238;23.110;2023-01-29T00:57:33;96677.34;;;2.54;100.00
39363;BME280;25088;43.238;23.110;2023-01-29T01:00:00;96677.34;;;2.54;100.00
39363;BME280;25088;43.238;23.110;2023-01-29T01:02:26;96689.56;;;2.57;100.00
39363;BME280;25088;43.238;23.110;2023-01-29T01:05:12;96692.84;;;2.52;100.00
39363;BME280;25088;43.238;23.110;2023-01-29T01:07:49;96679.59;;;2.44;100.00
39363;BME280;25088;43.238;23.110;2023-01-29T01:10:18;96694.94;;;2.57;100.00
39363;BME280;25088;43.238;23.110;2023-01-29T01:13:01;96696.00;;;2.56;100.00
39363;BME280;25088;43.238;23.110;2023-01-29T01:15:34;96695.56;;;2.52;100.00
39363;BME280;25088;43.238;23.110;2023-01-29T01:18:01;96697.63;;;2.50;100.00
39363;BME280;25088;43.238;23.110;2023-01-29T01:20:29;96703.84;;;2.51;100.00
39363;BME280;25088;43.238;23.110;2023-01-29T01:22:55;96694.72;;;2.45;100.00
39363;BME280;25088;43.238;23.110;2023-01-29T01:25:23;96717.31;;;2.51;100.00
39363;BME280;25088;43.238;23.110;2023-01-29T01:27:52;96709.25;;;2.51;100.00
39363;BME280;25088;43.238;23.110;2023-01-29T01:30:17;96712.31;;;2.48;100.00
39363;BME280;25088;43.238;23.110;2023-01-29T01:32:43;96700.94;;;2.46;100.00
39363;BME280;25088;43.238;23.110;2023-01-29T01:35:10;96708.78;;;2.47;100.00
39363;BME280;25088;43.238;23.110;2023-01-29T01:37:35;96711.91;;;2.44;100.00
39363;BME280;25088;43.238;23.110;2023-01-29T01:40:06;96717.69;;;2.41;100.00
39363;BME280;25088;43.238;23.110;2023-01-29T01:42:38;96709.59;;;2.35;100.00
39363;BME280;25088;43.238;23.110;2023-01-29T01:45:05;96716.22;;;2.39;100.00
39363;BME280;25088;43.238;23.110;2023-01-29T01:47:45;96729.03;;;2.30;100.00
39363;BME280;25088;43.238;23.110;2023-01-29T01:50:13;96719.53;;;2.34;100.00
39363;BME280;25088;43.238;23.110;2023-01-29T01:52:44;96722.63;;;2.38;100.00
39363;BME280;25088;43.238;23.110;2023-01-29T01:55:13;96712.44;;;2.33;100.00
39363;BME280;25088;43.238;23.110;2023-01-29T01:57:44;96719.72;;;2.32;100.00
39363;BME280;25088;43.238;23.110;2023-01-29T02:00:14;96720.78;;;2.38;100.00
39363;BME280;25088;43.238;23.110;2023-01-29T02:02:42;96719.13;;;2.37;100.00
39363;BME280;25088;43.238;23.110;2023-01-29T02:05:28;96718.31;;;2.43;100.00
39363;BME280;25088;43.238;23.110;2023-01-29T02:08:13;96715.81;;;2.42;100.00
39363;BME280;25088;43.238;23.110;2023-01-29T02:10:57;96722.41;;;2.32;100.00
39363;BME280;25088;43.238;23.110;2023-01-29T02:13:23;96722.03;;;2.36;100.00
39363;BME280;25088;43.238;23.110;2023-01-29T02:15:48;96701.44;;;2.28;100.00
39363;BME280;25088;43.238;23.110;2023-01-29T02:18:15;96701.03;;;2.24;100.00
39363;BME280;25088;43.238;23.110;2023-01-29T02:20:47;96718.50;;;2.35;100.00
39363;BME280;25088;43.238;23.110;2023-01-29T02:29:27;96722.84;;;2.36;100.00
39363;BME280;25088;43.238;23.110;2023-01-29T02:35:03;96724.91;;;2.34;100.00
39363;BME280;25088;43.238;23.110;2023-01-29T02:43:01;96736.66;;;2.20;100.00
39363;BME280;25088;43.238;23.110;2023-01-29T02:48:05;96738.06;;;2.16;100.00
39363;BME280;25088;43.238;23.110;2023-01-29T02:50:37;96730.81;;;2.16;100.00
39363;BME280;25088;43.238;23.110;2023-01-29T02:53:15;96737.16;;;2.08;100.00
39363;BME280;25088;43.238;23.110;2023-01-29T02:56:01;96740.72;;;2.09;100.00
39363;BME280;25088;43.238;23.110;2023-01-29T02:58:43;96742.56;;;2.08;100.00
39363;BME280;25088;43.238;23.110;2023-01-29T03:01:17;96736.06;;;1.96;100.00
39363;BME280;25088;43.238;23.110;2023-01-29T03:03:49;96731.47;;;1.90;100.00
39363;BME280;25088;43.238;23.110;2023-01-29T03:06:21;96728.06;;;1.75;100.00
39363;BME280;25088;43.238;23.110;2023-01-29T03:08:57;96734.09;;;1.84;100.00
39363;BME280;25088;43.238;23.110;2023-01-29T03:11:26;96740.59;;;1.89;100.00
39363;BME280;25088;43.238;23.110;2023-01-29T03:14:15;96738.53;;;1.91;100.00
39363;BME280;25088;43.238;23.110;2023-01-29T03:16:52;96736.88;;;1.90;100.00
39363;BME280;25088;43.238;23.110;2023-01-29T03:19:37;96739.84;;;2.02;100.00
39363;BME280;25088;43.238;23.110;2023-01-29T03:22:05;96741.94;;;2.06;100.00
39363;BME280;25088;43.238;23.110;2023-01-29T03:27:28;96740.72;;;2.09;100.00
39363;BME280;25088;43.238;23.110;2023-01-29T03:30:17;96743.44;;;2.16;100.00
39363;BME280;25088;43.238;23.110;2023-01-29T03:33:05;96741.38;;;2.18;100.00
39363;BME280;25088;43.238;23.110;2023-01-29T03:35:36;96747.59;;;2.18;100.00
39363;BME280;25088;43.238;23.110;2023-01-29T03:38:07;96745.13;;;2.17;100.00
39363;BME280;25088;43.238;23.110;2023-01-29T03:44:18;96749.31;;;2.26;100.00
39363;BME280;25088;43.238;23.110;2023-01-29T03:50:02;96743.09;;;2.25;100.00
39363;BME280;25088;43.238;23.110;2023-01-29T03:52:50;96749.28;;;2.19;100.00
39363;BME280;25088;43.238;23.110;2023-01-29T03:55:42;96748.59;;;2.11;100.00
39363;BME280;25088;43.238;23.110;2023-01-29T04:01:03;96754.19;;;2.09;100.00
39363;BME280;25088;43.238;23.110;2023-01-29T04:03:39;96753.56;;;2.14;100.00
39363;BME280;25088;43.238;23.110;2023-01-29T04:06:19;96747.59;;;2.18;100.00
39363;BME280;25088;43.238;23.110;2023-01-29T04:08:47;96757.53;;;2.18;100.00
39363;BME280;25088;43.238;23.110;2023-01-29T04:11:18;96755.09;;;2.23;100.00
39363;BME280;25088;43.238;23.110;2023-01-29T04:13:45;96751.97;;;2.19;100.00
39363;BME280;25088;43.238;23.110;2023-01-29T04:16:22;96733.88;;;2.13;100.00
39363;BME280;25088;43.238;23.110;2023-01-29T04:18:51;96753.22;;;2.23;100.00
39363;BME280;25088;43.238;23.110;2023-01-29T04:21:18;96743.66;;;2.14;100.00
39363;BME280;25088;43.238;23.110;2023-01-29T04:23:44;96751.38;;;2.24;100.00
39363;BME280;25088;43.238;23.110;2023-01-29T04:29:28;96752.16;;;2.18;100.00
39363;BME280;25088;43.238;23.110;2023-01-29T04:32:31;96747.19;;;2.15;100.00
39363;BME280;25088;43.238;23.110;2023-01-29T04:41:19;96755.78;;;2.03;100.00
39363;BME280;25088;43.238;23.110;2023-01-29T04:46:19;96752.19;;;1.90;100.00
39363;BME280;25088;43.238;23.110;2023-01-29T04:51:46;96755.63;;;1.84;100.00
39363;BME280;25088;43.238;23.110;2023-01-29T04:54:39;96762.50;;;1.86;100.00
39363;BME280;25088;43.238;23.110;2023-01-29T04:59:54;96747.75;;;1.82;100.00
39363;BME280;25088;43.238;23.110;2023-01-29T05:02:23;96769.66;;;2.00;100.00
39363;BME280;25088;43.238;23.110;2023-01-29T05:04:51;96766.97;;;2.00;100.00
39363;BME280;25088;43.238;23.110;2023-01-29T05:07:18;96774.03;;;2.08;100.00
39363;BME280;25088;43.238;23.110;2023-01-29T05:09:46;96761.81;;;2.05;100.00
39363;BME280;25088;43.238;23.110;2023-01-29T05:12:14;96774.25;;;2.06;100.00
39363;BME280;25088;43.238;23.110;2023-01-29T05:14:43;96783.81;;;2.09;100.00
39363;BME280;25088;43.238;23.110;2023-01-29T05:17:14;96776.50;;;2.03;100.00
39363;BME280;25088;43.238;23.110;2023-01-29T05:19:40;96784.44;;;2.11;100.00
39363;BME280;25088;43.238;23.110;2023-01-29T05:22:09;96775.72;;;2.09;100.00
39363;BME280;25088;43.238;23.110;2023-01-29T05:24:35;96785.31;;;2.18;100.00
39363;BME280;25088;43.238;23.110;2023-01-29T05:27:01;96792.97;;;2.15;100.00
39363;BME280;25088;43.238;23.110;2023-01-29T05:29:47;96788.81;;;2.19;100.00
39363;BME280;25088;43.238;23.110;2023-01-29T05:32:13;96793.44;;;2.25;100.00
39363;BME280;25088;43.238;23.110;2023-01-29T05:34:39;96783.44;;;2.19;100.00
39363;BME280;25088;43.238;23.110;2023-01-29T05:37:05;96781.41;;;2.21;100.00
39363;BME280;25088;43.238;23.110;2023-01-29T05:39:30;96767.78;;;2.01;100.00
39363;BME280;25088;43.238;23.110;2023-01-29T05:41:56;96781.13;;;2.09;100.00
39363;BME280;25088;43.238;23.110;2023-01-29T05:44:21;96784.22;;;2.13;100.00
39363;BME280;25088;43.238;23.110;2023-01-29T05:46:48;96784.44;;;2.11;100.00
39363;BME280;25088;43.238;23.110;2023-01-29T05:49:16;96785.72;;;2.15;100.00
39363;BME280;25088;43.238;23.110;2023-01-29T05:51:42;96740.34;;;1.84;100.00
39363;BME280;25088;43.238;23.110;2023-01-29T05:54:10;96793.56;;;2.10;100.00
39363;BME280;25088;43.238;23.110;2023-01-29T05:56:36;96798.97;;;2.17;100.00
39363;BME280;25088;43.238;23.110;2023-01-29T05:59:02;96799.59;;;2.19;100.00
39363;BME280;25088;43.238;23.110;2023-01-29T06:01:28;96801.91;;;2.22;100.00
39363;BME280;25088;43.238;23.110;2023-01-29T06:03:53;96800.25;;;2.21;100.00
39363;BME280;25088;43.238;23.110;2023-01-29T06:06:19;96807.31;;;2.22;100.00
39363;BME280;25088;43.238;23.110;2023-01-29T06:08:44;96807.44;;;2.14;100.00
39363;BME280;25088;43.238;23.110;2023-01-29T06:11:12;96801.19;;;2.06;100.00
39363;BME280;25088;43.238;23.110;2023-01-29T06:13:38;96801.97;;;2.00;100.00
39363;BME280;25088;43.238;23.110;2023-01-29T06:16:07;96814.19;;;2.03;100.00
39363;BME280;25088;43.238;23.110;2023-01-29T06:18:34;96805.03;;;1.97;100.00
39363;BME280;25088;43.238;23.110;2023-01-29T06:21:01;96822.97;;;2.12;100.00
39363;BME280;25088;43.238;23.110;2023-01-29T06:23:28;96811.94;;;2.06;100.00
39363;BME280;25088;43.238;23.110;2023-01-29T06:26:01;96828.34;;;2.12;100.00
39363;BME280;25088;43.238;23.110;2023-01-29T06:28:27;96815.44;;;2.00;100.00
39363;BME280;25088;43.238;23.110;2023-01-29T06:30:56;96832.97;;;2.18;100.00
39363;BME280;25088;43.238;23.110;2023-01-29T06:33:22;96838.84;;;2.28;100.00
39363;BME280;25088;43.238;23.110;2023-01-29T06:35:48;96845.50;;;2.32;100.00
39363;BME280;25088;43.238;23.110;2023-01-29T06:38:13;96853.53;;;2.25;100.00
39363;BME280;25088;43.238;23.110;2023-01-29T06:40:39;96855.59;;;2.23;100.00
39363;BME280;25088;43.238;23.110;2023-01-29T06:43:04;96860.63;;;2.33;100.00
39363;BME280;25088;43.238;23.110;2023-01-29T06:45:29;96856.22;;;2.25;100.00
39363;BME280;25088;43.238;23.110;2023-01-29T06:47:55;96862.59;;;2.18;100.00
39363;BME280;25088;43.238;23.110;2023-01-29T06:50:21;96863.25;;;2.20;100.00
39363;BME280;25088;43.238;23.110;2023-01-29T06:52:46;96869.00;;;2.17;100.00
39363;BME280;25088;43.238;23.110;2023-01-29T06:55:12;96803.00;;;1.78;100.00
39363;BME280;25088;43.238;23.110;2023-01-29T06:57:37;96865.78;;;2.28;100.00
39363;BME280;25088;43.238;23.110;2023-01-29T07:00:03;96850.59;;;2.20;100.00
39363;BME280;25088;43.238;23.110;2023-01-29T07:02:30;96872.00;;;2.28;100.00
39363;BME280;25088;43.238;23.110;2023-01-29T07:04:56;96879.56;;;2.18;100.00
39363;BME280;25088;43.238;23.110;2023-01-29T07:07:21;96873.88;;;2.06;100.00
39363;BME280;25088;43.238;23.110;2023-01-29T07:09:47;96866.00;;;2.05;100.00
39363;BME280;25088;43.238;23.110;2023-01-29T07:12:12;96879.31;;;2.13;100.00
39363;BME280;25088;43.238;23.110;2023-01-29T07:14:37;96880.34;;;2.12;100.00
39363;BME280;25088;43.238;23.110;2023-01-29T07:17:03;96872.84;;;2.07;100.00
39363;BME280;25088;43.238;23.110;2023-01-29T07:19:28;96870.38;;;2.06;100.00
39363;BME280;25088;43.238;23.110;2023-01-29T07:21:54;96884.91;;;2.12;100.00
39363;BME280;25088;43.238;23.110;2023-01-29T07:24:20;96878.06;;;2.09;100.00
39363;BME280;25088;43.238;23.110;2023-01-29T07:26:45;96878.69;;;2.11;100.00
39363;BME280;25088;43.238;23.110;2023-01-29T07:29:11;96886.19;;;2.16;100.00
39363;BME280;25088;43.238;23.110;2023-01-29T07:31:36;96889.78;;;2.23;100.00
39363;BME280;25088;43.238;23.110;2023-01-29T07:34:02;96895.22;;;2.29;100.00
39363;BME280;25088;43.238;23.110;2023-01-29T07:36:28;96894.41;;;2.29;100.00
39363;BME280;25088;43.238;23.110;2023-01-29T07:38:54;96892.88;;;2.20;100.00
39363;BME280;25088;43.238;23.110;2023-01-29T07:41:19;96902.56;;;2.14;100.00
39363;BME280;25088;43.238;23.110;2023-01-29T07:43:45;96885.94;;;2.11;100.00
39363;BME280;25088;43.238;23.110;2023-01-29T07:46:11;96910.69;;;2.21;100.00
39363;BME280;25088;43.238;23.110;2023-01-29T07:48:36;96905.31;;;2.21;100.00
39363;BME280;25088;43.238;23.110;2023-01-29T07:51:02;96904.22;;;2.15;100.00
39363;BME280;25088;43.238;23.110;2023-01-29T07:53:28;96902.47;;;2.07;100.00
39363;BME280;25088;43.238;23.110;2023-01-29T07:55:53;96913.72;;;2.11;100.00
39363;BME280;25088;43.238;23.110;2023-01-29T07:58:19;96916.34;;;2.04;100.00
39363;BME280;25088;43.238;23.110;2023-01-29T08:00:45;96914.66;;;2.03;100.00
39363;BME280;25088;43.238;23.110;2023-01-29T08:03:13;96909.72;;;2.07;100.00
39363;BME280;25088;43.238;23.110;2023-01-29T08:05:40;96911.22;;;2.10;100.00
39363;BME280;25088;43.238;23.110;2023-01-29T08:08:06;96912.81;;;2.04;100.00
39363;BME280;25088;43.238;23.110;2023-01-29T08:10:36;96915.94;;;2.07;100.00
39363;BME280;25088;43.238;23.110;2023-01-29T08:13:03;96925.38;;;2.18;100.00
39363;BME280;25088;43.238;23.110;2023-01-29T08:15:29;96932.69;;;2.24;100.00
39363;BME280;25088;43.238;23.110;2023-01-29T08:17:54;96925.38;;;2.18;100.00
39363;BME280;25088;43.238;23.110;2023-01-29T08:20:20;96931.41;;;2.20;100.00
39363;BME280;25088;43.238;23.110;2023-01-29T08:22:46;96934.09;;;2.20;100.00
39363;BME280;25088;43.238;23.110;2023-01-29T08:25:12;96929.53;;;2.21;100.00
39363;BME280;25088;43.238;23.110;2023-01-29T08:27:38;96932.50;;;2.26;100.00
39363;BME280;25088;43.238;23.110;2023-01-29T08:30:12;96927.22;;;2.39;100.00
39363;BME280;25088;43.238;23.110;2023-01-29T08:32:38;96945.50;;;2.44;100.00
39363;BME280;25088;43.238;23.110;2023-01-29T08:35:04;96936.41;;;2.45;100.00
39363;BME280;25088;43.238;23.110;2023-01-29T08:37:30;96948.00;;;2.45;100.00
39363;BME280;25088;43.238;23.110;2023-01-29T08:39:55;96955.06;;;2.46;100.00
39363;BME280;25088;43.238;23.110;2023-01-29T08:42:21;96957.13;;;2.44;100.00
39363;BME280;25088;43.238;23.110;2023-01-29T08:44:46;96949.03;;;2.44;100.00
39363;BME280;25088;43.238;23.110;2023-01-29T08:47:12;96936.06;;;2.33;100.00
39363;BME280;25088;43.238;23.110;2023-01-29T08:49:37;96936.72;;;2.35;100.00
39363;BME280;25088;43.238;23.110;2023-01-29T08:52:03;96961.06;;;2.48;100.00
39363;BME280;25088;43.238;23.110;2023-01-29T08:54:28;96963.19;;;2.53;100.00
39363;BME280;25088;43.238;23.110;2023-01-29T08:56:54;96962.56;;;2.51;100.00
39363;BME280;25088;43.238;23.110;2023-01-29T08:59:19;96961.31;;;2.53;100.00
39363;BME280;25088;43.238;23.110;2023-01-29T09:01:47;96959.50;;;2.54;100.00
39363;BME280;25088;43.238;23.110;2023-01-29T09:04:12;96961.56;;;2.58;100.00
39363;BME280;25088;43.238;23.110;2023-01-29T09:06:38;96959.16;;;2.64;100.00
39363;BME280;25088;43.238;23.110;2023-01-29T09:09:03;96949.63;;;2.68;100.00
39363;BME280;25088;43.238;23.110;2023-01-29T09:11:29;96953.38;;;2.73;100.00
39363;BME280;25088;43.238;23.110;2023-01-29T09:13:54;96947.81;;;2.75;100.00
39363;BME280;25088;43.238;23.110;2023-01-29T09:16:19;96953.91;;;2.83;100.00
39363;BME280;25088;43.238;23.110;2023-01-29T09:18:45;96938.91;;;2.74;100.00
39363;BME280;25088;43.238;23.110;2023-01-29T09:21:10;96930.41;;;2.77;100.00
39363;BME280;25088;43.238;23.110;2023-01-29T09:23:36;96933.78;;;2.86;100.00
39363;BME280;25088;43.238;23.110;2023-01-29T09:26:02;96934.50;;;3.01;100.00
39363;BME280;25088;43.238;23.110;2023-01-29T09:28:27;96924.78;;;3.07;100.00
39363;BME280;25088;43.238;23.110;2023-01-29T09:30:53;96930.38;;;3.05;100.00
39363;BME280;25088;43.238;23.110;2023-01-29T09:33:18;96928.53;;;3.06;100.00
39363;BME280;25088;43.238;23.110;2023-01-29T09:35:44;96927.50;;;3.07;100.00
39363;BME280;25088;43.238;23.110;2023-01-29T09:38:13;96930.03;;;3.15;100.00
39363;BME280;25088;43.238;23.110;2023-01-29T09:41:19;96921.94;;;3.15;100.00
39363;BME280;25088;43.238;23.110;2023-01-29T09:43:51;96921.28;;;3.13;100.00
39363;BME280;25088;43.238;23.110;2023-01-29T09:46:37;96918.31;;;3.36;100.00
39363;BME280;25088;43.238;23.110;2023-01-29T09:49:17;96916.94;;;3.60;100.00
39363;BME280;25088;43.238;23.110;2023-01-29T09:51:52;96908.91;;;3.80;100.00
39363;BME280;25088;43.238;23.110;2023-01-29T09:54:58;96911.03;;;4.04;100.00
39363;BME280;25088;43.238;23.110;2023-01-29T10:00:04;96909.63;;;4.55;99.03
39363;BME280;25088;43.238;23.110;2023-01-29T10:10:47;96904.88;;;5.48;89.75
39363;BME280;25088;43.238;23.110;2023-01-29T10:13:25;96897.72;;;5.60;86.37
39363;BME280;25088;43.238;23.110;2023-01-29T10:23:52;96872.78;;;6.53;72.75
39363;BME280;25088;43.238;23.110;2023-01-29T10:26:26;96863.13;;;8.58;67.26
39363;BME280;25088;43.238;23.110;2023-01-29T10:28:54;96853.94;;;9.57;62.98
39363;BME280;25088;43.238;23.110;2023-01-29T10:31:28;96849.91;;;9.89;59.13
39363;BME280;25088;43.238;23.110;2023-01-29T10:34:01;96861.97;;;9.64;59.60
39363;BME280;25088;43.238;23.110;2023-01-29T10:36:35;96845.44;;;10.11;56.81
39363;BME280;25088;43.238;23.110;2023-01-29T10:39:03;96837.28;;;9.99;56.02
39363;BME280;25088;43.238;23.110;2023-01-29T11:00:23;96813.88;;;10.99;51.90
39363;BME280;25088;43.238;23.110;2023-01-29T11:02:50;96804.31;;;11.84;49.36
39363;BME280;25088;43.238;23.110;2023-01-29T11:05:25;96806.63;;;12.57;47.50
39363;BME280;25088;43.238;23.110;2023-01-29T11:08:07;96807.75;;;13.40;46.36
39363;BME280;25088;43.238;23.110;2023-01-29T11:10:40;96807.28;;;13.54;45.76
39363;BME280;25088;43.238;23.110;2023-01-29T11:13:12;96792.28;;;13.82;44.79
39363;BME280;25088;43.238;23.110;2023-01-29T11:15:39;96814.72;;;12.41;46.29
39363;BME280;25088;43.238;23.110;2023-01-29T11:18:12;96805.94;;;10.64;47.96
39363;BME280;25088;43.238;23.110;2023-01-29T11:20:39;96816.72;;;9.92;50.70
39363;BME280;25088;43.238;23.110;2023-01-29T11:23:05;96803.56;;;9.08;54.83
39363;BME280;25088;43.238;23.110;2023-01-29T11:25:31;96818.03;;;8.97;56.37
39363;BME280;25088;43.238;23.110;2023-01-29T11:28:00;96820.06;;;8.66;57.30
39363;BME280;25088;43.238;23.110;2023-01-29T11:30:30;96812.44;;;8.33;59.96
39363;BME280;25088;43.238;23.110;2023-01-29T11:35:25;96802.03;;;7.46;67.42
39363;BME280;25088;43.238;23.110;2023-01-29T11:37:50;96796.16;;;7.13;69.01
39363;BME280;25088;43.238;23.110;2023-01-29T11:40:35;96803.78;;;7.04;65.83
39363;BME280;25088;43.238;23.110;2023-01-29T11:43:30;96778.31;;;6.87;67.91
39363;BME280;25088;43.238;23.110;2023-01-29T11:46:10;96790.66;;;6.83;70.42
39363;BME280;25088;43.238;23.110;2023-01-29T11:48:41;96794.25;;;6.58;69.34
39363;BME280;25088;43.238;23.110;2023-01-29T11:51:11;96797.09;;;6.45;72.76
39363;BME280;25088;43.238;23.110;2023-01-29T11:53:42;96793.56;;;6.44;73.60
39363;BME280;25088;43.238;23.110;2023-01-29T11:56:41;96788.41;;;6.36;73.00
39363;BME280;25088;43.238;23.110;2023-01-29T11:59:42;96792.00;;;6.30;71.96
39363;BME280;25088;43.238;23.110;2023-01-29T12:02:43;96791.28;;;6.16;69.48
39363;BME280;25088;43.238;23.110;2023-01-29T12:05:17;96791.41;;;6.03;68.82
39363;BME280;25088;43.238;23.110;2023-01-29T12:07:45;96800.28;;;5.92;72.91
39363;BME280;25088;43.238;23.110;2023-01-29T12:15:37;96798.50;;;5.66;71.53
39363;BME280;25088;43.238;23.110;2023-01-29T12:20:59;96802.16;;;5.53;72.92
39363;BME280;25088;43.238;23.110;2023-01-29T12:26:24;96806.63;;;5.34;80.52
39363;BME280;25088;43.238;23.110;2023-01-29T12:31:54;96800.03;;;5.17;88.62
39363;BME280;25088;43.238;23.110;2023-01-29T12:34:51;96802.75;;;5.10;87.31
39363;BME280;25088;43.238;23.110;2023-01-29T12:40:13;96808.69;;;4.81;89.40
39363;BME280;25088;43.238;23.110;2023-01-29T12:42:43;96807.63;;;4.82;89.93
39363;BME280;25088;43.238;23.110;2023-01-29T12:45:16;96801.81;;;4.85;89.30
39363;BME280;25088;43.238;23.110;2023-01-29T12:47:55;96809.94;;;4.85;86.23
39363;BME280;25088;43.238;23.110;2023-01-29T12:50:31;96785.41;;;4.80;92.20
39363;BME280;25088;43.238;23.110;2023-01-29T12:55:31;96812.03;;;4.83;91.41
39363;BME280;25088;43.238;23.110;2023-01-29T12:58:01;96810.38;;;4.75;92.72
39363;BME280;25088;43.238;23.110;2023-01-29T13:00:31;96818.06;;;4.78;92.86
39363;BME280;25088;43.238;23.110;2023-01-29T13:05:56;96813.28;;;4.80;92.09
39363;BME280;25088;43.238;23.110;2023-01-29T13:08:29;96815.56;;;4.77;92.18
39363;BME280;25088;43.238;23.110;2023-01-29T13:10:59;96815.38;;;4.72;93.21
39363;BME280;25088;43.238;23.110;2023-01-29T13:13:35;96812.47;;;4.66;93.47
39363;BME280;25088;43.238;23.110;2023-01-29T13:16:08;96814.78;;;4.63;93.65
39363;BME280;25088;43.238;23.110;2023-01-29T13:18:50;96814.53;;;4.71;92.59
39363;BME280;25088;43.238;23.110;2023-01-29T13:21:28;96824.34;;;4.59;93.17
39363;BME280;25088;43.238;23.110;2023-01-29T13:24:04;96825.38;;;4.51;96.29
39363;BME280;25088;43.238;23.110;2023-01-29T13:26:34;96797.13;;;4.27;98.96
39363;BME280;25088;43.238;23.110;2023-01-29T13:29:00;96824.78;;;4.36;99.09
39363;BME280;25088;43.238;23.110;2023-01-29T13:31:28;96830.84;;;4.25;97.30
39363;BME280;25088;43.238;23.110;2023-01-29T13:34:14;96804.03;;;4.10;97.41
39363;BME280;25088;43.238;23.110;2023-01-29T13:36:43;96825.00;;;4.21;97.51
39363;BME280;25088;43.238;23.110;2023-01-29T13:39:21;96830.63;;;4.20;96.61
39363;BME280;25088;43.238;23.110;2023-01-29T13:41:48;96829.16;;;4.17;95.34
39363;BME280;25088;43.238;23.110;2023-01-29T13:44:32;96831.25;;;4.08;97.74
39363;BME280;25088;43.238;23.110;2023-01-29T13:47:01;96804.41;;;3.87;97.73
39363;BME280;25088;43.238;23.110;2023-01-29T14:08:01;96840.78;;;3.91;100.00
39363;BME280;25088;43.238;23.110;2023-01-29T14:10:31;96839.97;;;3.91;100.00
39363;BME280;25088;43.238;23.110;2023-01-29T14:15:30;96840.31;;;3.68;100.00
39363;BME280;25088;43.238;23.110;2023-01-29T14:18:15;96833.25;;;3.67;100.00
39363;BME280;25088;43.238;23.110;2023-01-29T14:21:21;96838.47;;;3.68;100.00
39363;BME280;25088;43.238;23.110;2023-01-29T14:24:08;96817.69;;;3.55;100.00
39363;BME280;25088;43.238;23.110;2023-01-29T14:26:43;96825.38;;;3.58;100.00
39363;BME280;25088;43.238;23.110;2023-01-29T14:31:54;96814.31;;;3.47;100.00
39363;BME280;25088;43.238;23.110;2023-01-29T14:36:50;96841.53;;;3.52;100.00
39363;BME280;25088;43.238;23.110;2023-01-29T14:39:42;96847.59;;;3.54;100.00
39363;BME280;25088;43.238;23.110;2023-01-29T14:42:30;96855.25;;;3.50;100.00
39363;BME280;25088;43.238;23.110;2023-01-29T14:45:30;96858.16;;;3.49;100.00
39363;BME280;25088;43.238;23.110;2023-01-29T14:50:38;96867.50;;;3.53;100.00
39363;BME280;25088;43.238;23.110;2023-01-29T14:56:03;96865.22;;;3.56;100.00
39363;BME280;25088;43.238;23.110;2023-01-29T14:59:15;96866.03;;;3.50;100.00
39363;BME280;25088;43.238;23.110;2023-01-29T15:01:47;96856.22;;;3.36;100.00
39363;BME280;25088;43.238;23.110;2023-01-29T15:04:19;96870.16;;;3.40;100.00
39363;BME280;25088;43.238;23.110;2023-01-29T15:07:18;96877.22;;;3.41;100.00
39363;BME280;25088;43.238;23.110;2023-01-29T15:10:16;96869.13;;;3.41;100.00
39363;BME280;25088;43.238;23.110;2023-01-29T15:12:51;96873.03;;;3.31;100.00
39363;BME280;25088;43.238;23.110;2023-01-29T15:18:00;96851.38;;;3.11;100.00
39363;BME280;25088;43.238;23.110;2023-01-29T15:20:35;96864.50;;;3.28;100.00
39363;BME280;25088;43.238;23.110;2023-01-29T15:23:02;96874.28;;;3.29;100.00
39363;BME280;25088;43.238;23.110;2023-01-29T15:25:36;96877.13;;;3.21;100.00
39363;BME280;25088;43.238;23.110;2023-01-29T15:28:11;96866.50;;;3.13;100.00
39363;BME280;25088;43.238;23.110;2023-01-29T15:30:37;96870.44;;;3.10;100.00
39363;BME280;25088;43.238;23.110;2023-01-29T15:33:04;96848.59;;;2.98;100.00
39363;BME280;25088;43.238;23.110;2023-01-29T15:35:36;96870.91;;;3.14;100.00
39363;BME280;25088;43.238;23.110;2023-01-29T15:40:31;96874.97;;;3.03;100.00